Wilson Algeciras — 9HA2471 — position and weather

sailwx.info

Track history (hours):
 
Tides and Currents Weather Stations Pressure Air Temp Water Temp Dewpoint Dewpoint Depression Visibility Wind Speed Wind Dir Waves Ship Positions

Wilson Algeciras

Last reported at 2017-Mar-27 15:34 UTC. Time now 2017-Mar-27 16:25 UTC.
Position N 57°51' E 009°54'.

Length 88 m; draft 3.2 m.

Type: Ship. MMSI: 248689000.

Date/timePositionNaut miles runAvg speedWind from/ knotsBaromVisibWave heightAir tempDewpointWater temp
2017-Mar-27 15:34N 57°51' E 009°54'10 9.4
2017-Mar-27 14:30N 57°50' E 010°12'8 8.6
2017-Mar-27 13:33N 57°50' E 010°27'9 8.8
2017-Mar-27 12:32N 57°49' E 010°44'9 9.4
2017-Mar-27 11:32N 57°43' E 010°58'1010.4
2017-Mar-27 10:33N 57°36' E 011°12'1010.3
2017-Mar-27 09:33N 57°28' E 011°25'9 9.5
2017-Mar-27 08:33N 57°19' E 011°31'1010.1
2017-Mar-27 07:33N 57°10' E 011°37'1010.4
2017-Mar-27 06:33N 57°00' E 011°44'10 9.8
2017-Mar-27 05:33N 56°51' E 011°51'24 9.6
2017-Mar-27 03:05N 56°28' E 012°01'6 9.5
2017-Mar-27 02:30N 56°23' E 012°04'8 8.7
2017-Mar-27 01:33N 56°16' E 012°11'9 9.1
2017-Mar-27 00:34N 56°11' E 012°24'10 9.6
2017-Mar-26 23:33N 56°04' E 012°38'9 9.3
2017-Mar-26 22:33N 55°56' E 012°44'10 9.7
2017-Mar-26 21:33N 55°46' E 012°42'1010.2
2017-Mar-26 20:33N 55°36' E 012°42'1010.0
2017-Mar-26 19:33N 55°26' E 012°42'9 8.9
2017-Mar-26 18:33N 55°17' E 012°46'9 9.3
2017-Mar-26 17:34N 55°13' E 013°00'10 9.4
2017-Mar-26 16:33N 55°07' E 013°13'9 9.2
2017-Mar-26 15:34N 55°02' E 013°27'10 9.4
2017-Mar-26 14:33N 54°56' E 013°39'10 9.5
2017-Mar-26 13:29N 54°50' E 013°53'10 9.4
2017-Mar-26 12:28N 54°44' E 014°06'45 9.1
2017-Mar-26 07:34N 54°42' E 015°23'40 9.6
2017-Mar-26 03:26N 54°49' E 016°31'49 9.6
2017-Mar-25 22:24N 54°57' E 017°54'8 9.7
2017-Mar-25 21:33N 54°57' E 018°09'10 9.7
2017-Mar-25 20:34N 54°57' E 018°25'9 9.2
2017-Mar-25 19:34N 54°54' E 018°40'10 9.8
2017-Mar-25 18:34N 54°48' E 018°54'8 8.3
2017-Mar-25 17:34N 54°40' E 018°57'10 9.7
2017-Mar-25 16:33N 54°32' E 018°48'9 9.3
2017-Mar-25 15:34N 54°32' E 018°32'0 0.1
2017-Mar-25 14:34N 54°32' E 018°32'0 0.0
2017-Mar-25 13:34N 54°32' E 018°32'0 0.0
2017-Mar-25 12:33N 54°32' E 018°32'0 0.0
2017-Mar-25 11:33N 54°32' E 018°32'0 0.0
2017-Mar-25 10:34N 54°32' E 018°32'0 0.0
2017-Mar-25 09:34N 54°32' E 018°32'0 0.0
2017-Mar-25 08:34N 54°32' E 018°32'0 0.0
2017-Mar-25 07:34N 54°32' E 018°32'0 0.0
2017-Mar-25 06:34N 54°32' E 018°32'0 0.0
2017-Mar-25 05:34N 54°32' E 018°32'0 0.0
2017-Mar-25 04:34N 54°32' E 018°32'0 0.0
2017-Mar-25 03:33N 54°32' E 018°32'0 0.0
2017-Mar-25 02:33N 54°32' E 018°32'0 0.0
2017-Mar-25 01:34N 54°32' E 018°32'0 0.5
2017-Mar-25 00:34N 54°32' E 018°32'5 5.4
2017-Mar-24 23:34N 54°32' E 018°42'8 8.3
2017-Mar-24 22:34N 54°37' E 018°54'9 9.0
2017-Mar-24 21:33N 54°46' E 018°58'9 9.3
2017-Mar-24 20:34N 54°51' E 018°45'9 9.1
2017-Mar-24 19:34N 54°55' E 018°31'9 9.4
2017-Mar-24 18:34N 54°55' E 018°15'10 9.4
2017-Mar-24 17:29N 54°54' E 017°57'93 9.4
2017-Mar-24 07:34N 54°41' E 015°17'9 9.2
2017-Mar-24 06:34N 54°39' E 015°01'9 9.2
2017-Mar-24 05:34N 54°38' E 014°45'9 8.8
2017-Mar-24 04:34N 54°37' E 014°31'8 8.5
2017-Mar-24 03:34N 54°37' E 014°16'9 8.8
2017-Mar-24 02:32N 54°42' E 014°03'9 9.1
2017-Mar-24 01:33N 54°48' E 013°51'9 9.4
2017-Mar-24 00:32N 54°54' E 013°38'9 9.1
2017-Mar-23 23:33N 54°59' E 013°26'10 9.3
2017-Mar-23 22:31N 55°05' E 013°13'9 9.1
2017-Mar-23 21:34N 55°10' E 013°01'9 9.1
2017-Mar-23 20:33N 55°16' E 012°48'8 7.6
2017-Mar-23 19:34N 55°21' E 012°39'9 8.9
2017-Mar-23 18:34N 55°30' E 012°41'8 8.0
2017-Mar-23 17:34N 55°38' E 012°42'8 7.7
2017-Mar-23 16:34N 55°45' E 012°41'9 8.8
2017-Mar-23 15:33N 55°54' E 012°38'8 8.2
2017-Mar-23 14:33N 56°02' E 012°38'7 7.0
2017-Mar-23 13:34N 56°07' E 012°29'9 8.9
2017-Mar-23 12:33N 56°12' E 012°16'9 9.0
2017-Mar-23 11:33N 56°18' E 012°03'20 9.2
2017-Mar-23 09:21N 56°37' E 011°55'11 9.0
2017-Mar-23 08:06N 56°48' E 011°49'5 9.1
2017-Mar-23 07:34N 56°53' E 011°46'9 9.1
2017-Mar-23 06:31N 57°02' E 011°41'9 9.0
2017-Mar-23 05:32N 57°10' E 011°35'9 9.5
2017-Mar-23 04:34N 57°19' E 011°30'9 9.4
2017-Mar-23 03:34N 57°28' E 011°23'9 9.3
2017-Mar-23 02:33N 57°34' E 011°11'10 9.5
2017-Mar-23 01:33N 57°41' E 010°57'10 9.7
2017-Mar-23 00:33N 57°47' E 010°44'1111.0
2017-Mar-22 23:33N 57°48' E 010°23'1110.0
2017-Mar-22 22:25N 57°47' E 010°02'54 9.3
2017-Mar-22 16:33N 57°51' E 008°20'8 8.2
2017-Mar-22 15:33N 57°53' E 008°05'9 9.1
2017-Mar-22 14:34N 57°53' E 007°48'10 9.6
2017-Mar-22 13:33N 57°54' E 007°30'9 9.0
2017-Mar-22 12:33N 57°54' E 007°13'9 9.1
2017-Mar-22 11:33N 57°55' E 006°56'8 8.2
2017-Mar-22 10:33N 57°57' E 006°41'9 8.5
2017-Mar-22 09:33N 58°01' E 006°27'9 8.7
2017-Mar-22 08:33N 58°06' E 006°13'8 8.3
2017-Mar-22 07:33N 58°11' E 006°01'8 8.4
2017-Mar-22 06:33N 58°16' E 005°48'8 8.2
2017-Mar-22 05:33N 58°20' E 005°35'8 7.8
2017-Mar-22 04:33N 58°27' E 005°26'8 7.8
2017-Mar-22 03:33N 58°34' E 005°21'5 5.5
2017-Mar-22 02:34N 58°39' E 005°17'8 7.7
2017-Mar-22 01:34N 58°46' E 005°10'6 5.9
2017-Mar-22 00:34N 58°51' E 005°06'5 5.1
2017-Mar-21 23:33N 58°56' E 005°02'8 8.2
2017-Mar-21 22:33N 59°03' E 004°54'23 7.5
2017-Mar-21 19:33N 59°25' E 004°45'8 7.7
2017-Mar-21 18:33N 59°33' E 004°46'8 7.9
2017-Mar-21 17:33N 59°41' E 004°49'8 7.8
2017-Mar-21 16:33N 59°48' E 004°52'8 8.0
2017-Mar-21 15:33N 59°56' E 004°52'7 7.2
2017-Mar-21 14:33N 60°03' E 004°55'4 3.7
2017-Mar-21 13:33N 60°07' E 004°56'7 6.9
2017-Mar-21 12:34N 60°10' E 005°08'8 8.5
2017-Mar-21 11:33N 60°19' E 005°08'8 7.5
2017-Mar-21 10:33N 60°25' E 005°16'9 8.6
2017-Mar-21 09:33N 60°33' E 005°22'8 8.5
2017-Mar-21 08:33N 60°39' E 005°35'3 3.0
2017-Mar-21 07:31N 60°42' E 005°33'0 0.0
2017-Mar-21 06:31N 60°42' E 005°33'0 0.0
2017-Mar-21 05:31N 60°42' E 005°33'0 0.0
2017-Mar-21 04:31N 60°42' E 005°33'0 0.0
2017-Mar-21 03:31N 60°42' E 005°33'0 0.0
2017-Mar-21 02:31N 60°42' E 005°33'0 0.0
2017-Mar-21 01:31N 60°42' E 005°33'0 0.0
2017-Mar-21 00:31N 60°42' E 005°33'0 0.0
2017-Mar-20 23:31N 60°42' E 005°33'0 0.0
2017-Mar-20 22:33N 60°42' E 005°33'0 0.0
2017-Mar-20 21:33N 60°42' E 005°33'0 0.0
2017-Mar-20 20:33N 60°42' E 005°33'0 0.0
2017-Mar-20 19:33N 60°42' E 005°33'0 0.0
2017-Mar-20 18:33N 60°42' E 005°33'0 0.0
2017-Mar-20 17:33N 60°42' E 005°33'0 0.0
2017-Mar-20 16:33N 60°42' E 005°33'0 0.0
2017-Mar-20 15:33N 60°42' E 005°33'6 6.0
2017-Mar-20 14:33N 60°36' E 005°29'8 8.4
2017-Mar-20 13:33N 60°34' E 005°12'9 9.1
2017-Mar-20 12:33N 60°38' E 004°56'8 8.4
2017-Mar-20 11:33N 60°44' E 004°44'5 5.5
2017-Mar-20 10:33N 60°41' E 004°34'4 3.7
2017-Mar-20 09:33N 60°38' E 004°30'1 1.1
2017-Mar-20 08:33N 60°38' E 004°28'0 0.2
2017-Mar-20 07:33N 60°38' E 004°28'1 0.8
2017-Mar-20 06:33N 60°38' E 004°27'0 0.4
2017-Mar-20 05:33N 60°39' E 004°26'0 0.4
2017-Mar-20 04:33N 60°39' E 004°26'0 0.5
2017-Mar-20 03:33N 60°39' E 004°25'0 0.4
2017-Mar-20 02:33N 60°39' E 004°24'0 0.5
2017-Mar-20 01:33N 60°38' E 004°23'0 0.4
2017-Mar-20 00:33N 60°38' E 004°23'1 0.9
2017-Mar-19 23:33N 60°37' E 004°22'1 0.6
2017-Mar-19 22:33N 60°37' E 004°22'1 1.3
2017-Mar-19 21:33N 60°35' E 004°22'1 0.5
2017-Mar-19 20:33N 60°36' E 004°23'1 0.6
2017-Mar-19 19:33N 60°35' E 004°24'1 1.1
2017-Mar-19 18:33N 60°35' E 004°26'2 2.3
2017-Mar-19 17:33N 60°38' E 004°28'3 3.2
2017-Mar-19 16:33N 60°40' E 004°23'2 1.9
2017-Mar-19 15:32N 60°42' E 004°24'5 2.5
2017-Mar-19 13:33N 60°46' E 004°18'2 1.7
2017-Mar-19 12:33N 60°48' E 004°19'2 1.7
2017-Mar-19 11:33N 60°49' E 004°18'1 1.4
2017-Mar-19 10:33N 60°51' E 004°17'6 2.0
2017-Mar-19 07:33N 60°57' E 004°17'5 4.6
2017-Mar-19 06:33N 61°01' E 004°20'6 6.3
2017-Mar-19 05:33N 61°07' E 004°23'6 6.2
2017-Mar-19 04:33N 61°13' E 004°20'25 6.2
2017-Mar-19 00:33N 61°38' E 004°23'7 7.1
2017-Mar-18 23:33N 61°44' E 004°29'8 7.9
2017-Mar-18 22:33N 61°52' E 004°36'8 8.2
2017-Mar-18 21:33N 61°59' E 004°43'9 8.4
2017-Mar-18 20:33N 62°07' E 004°50'8 7.8
2017-Mar-18 19:33N 62°14' E 004°57'7 6.9
2017-Mar-18 18:33N 62°20' E 005°03'8 7.6
2017-Mar-18 17:33N 62°27' E 005°11'8 8.1
2017-Mar-18 16:33N 62°33' E 005°22'8 8.1
2017-Mar-18 15:33N 62°39' E 005°35'8 8.3
2017-Mar-18 14:33N 62°45' E 005°47'9 9.3
2017-Mar-18 13:33N 62°51' E 006°02'9 9.1
2017-Mar-18 12:33N 62°57' E 006°18'9 9.0
2017-Mar-18 11:33N 63°02' E 006°35'9 9.1
2017-Mar-18 10:33N 63°06' E 006°52'9 8.8
2017-Mar-18 09:33N 63°11' E 007°08'9 8.9
2017-Mar-18 08:34N 63°15' E 007°26'9 8.9
2017-Mar-18 07:34N 63°14' E 007°45'9 8.6
2017-Mar-18 06:33N 63°15' E 008°04'10 9.7
2017-Mar-18 05:33N 63°21' E 008°21'1010.1
2017-Mar-18 04:33N 63°26' E 008°41'10 9.9
2017-Mar-18 03:33N 63°29' E 009°02'8 8.5
2017-Mar-18 02:33N 63°35' E 009°16'9 9.1
2017-Mar-18 01:33N 63°44' E 009°22'9 8.9
2017-Mar-18 00:33N 63°49' E 009°38'0 0.0
2017-Mar-17 23:33N 63°49' E 009°38'0 0.0
2017-Mar-17 22:33N 63°49' E 009°38'0 0.0
2017-Mar-17 21:33N 63°49' E 009°38'0 0.0
2017-Mar-17 20:33N 63°49' E 009°38'0 0.0
2017-Mar-17 19:33N 63°49' E 009°38'0 0.0
2017-Mar-17 18:33N 63°49' E 009°38'0 0.0
2017-Mar-17 17:33N 63°49' E 009°38'0 0.0
2017-Mar-17 16:33N 63°49' E 009°38'  
Track history (hours):
 
Tides and Currents Weather Stations Pressure Air Temp Water Temp Dewpoint Dewpoint Depression Visibility Wind Speed Wind Dir Waves Ship Positions

Wilson Algeciras

Last reported at 2017-Mar-27 15:34 UTC. Time now 2017-Mar-27 16:25 UTC.
Position N 57°51' E 009°54'.

Length 88 m; draft 3.2 m.

Type: Ship. MMSI: 248689000.

Date/timePositionNaut miles runAvg speedWind from/ knotsBaromVisibWave heightAir tempDewpointWater temp
2017-Mar-27 15:34N 57°51' E 009°54'10 9.4
2017-Mar-27 14:30N 57°50' E 010°12'8 8.6
2017-Mar-27 13:33N 57°50' E 010°27'9 8.8
2017-Mar-27 12:32N 57°49' E 010°44'9 9.4
2017-Mar-27 11:32N 57°43' E 010°58'1010.4
2017-Mar-27 10:33N 57°36' E 011°12'1010.3
2017-Mar-27 09:33N 57°28' E 011°25'9 9.5
2017-Mar-27 08:33N 57°19' E 011°31'1010.1
2017-Mar-27 07:33N 57°10' E 011°37'1010.4
2017-Mar-27 06:33N 57°00' E 011°44'10 9.8
2017-Mar-27 05:33N 56°51' E 011°51'24 9.6
2017-Mar-27 03:05N 56°28' E 012°01'6 9.5
2017-Mar-27 02:30N 56°23' E 012°04'8 8.7
2017-Mar-27 01:33N 56°16' E 012°11'9 9.1
2017-Mar-27 00:34N 56°11' E 012°24'10 9.6
2017-Mar-26 23:33N 56°04' E 012°38'9 9.3
2017-Mar-26 22:33N 55°56' E 012°44'10 9.7
2017-Mar-26 21:33N 55°46' E 012°42'1010.2
2017-Mar-26 20:33N 55°36' E 012°42'1010.0
2017-Mar-26 19:33N 55°26' E 012°42'9 8.9
2017-Mar-26 18:33N 55°17' E 012°46'9 9.3
2017-Mar-26 17:34N 55°13' E 013°00'10 9.4
2017-Mar-26 16:33N 55°07' E 013°13'9 9.2
2017-Mar-26 15:34N 55°02' E 013°27'10 9.4
2017-Mar-26 14:33N 54°56' E 013°39'10 9.5
2017-Mar-26 13:29N 54°50' E 013°53'10 9.4
2017-Mar-26 12:28N 54°44' E 014°06'45 9.1
2017-Mar-26 07:34N 54°42' E 015°23'40 9.6
2017-Mar-26 03:26N 54°49' E 016°31'49 9.6
2017-Mar-25 22:24N 54°57' E 017°54'8 9.7
2017-Mar-25 21:33N 54°57' E 018°09'10 9.7
2017-Mar-25 20:34N 54°57' E 018°25'9 9.2
2017-Mar-25 19:34N 54°54' E 018°40'10 9.8
2017-Mar-25 18:34N 54°48' E 018°54'8 8.3
2017-Mar-25 17:34N 54°40' E 018°57'10 9.7
2017-Mar-25 16:33N 54°32' E 018°48'9 9.3
2017-Mar-25 15:34N 54°32' E 018°32'0 0.1
2017-Mar-25 14:34N 54°32' E 018°32'0 0.0
2017-Mar-25 13:34N 54°32' E 018°32'0 0.0
2017-Mar-25 12:33N 54°32' E 018°32'0 0.0
2017-Mar-25 11:33N 54°32' E 018°32'0 0.0
2017-Mar-25 10:34N 54°32' E 018°32'0 0.0
2017-Mar-25 09:34N 54°32' E 018°32'0 0.0
2017-Mar-25 08:34N 54°32' E 018°32'0 0.0
2017-Mar-25 07:34N 54°32' E 018°32'0 0.0
2017-Mar-25 06:34N 54°32' E 018°32'0 0.0
2017-Mar-25 05:34N 54°32' E 018°32'0 0.0
2017-Mar-25 04:34N 54°32' E 018°32'0 0.0
2017-Mar-25 03:33N 54°32' E 018°32'0 0.0
2017-Mar-25 02:33N 54°32' E 018°32'0 0.0
2017-Mar-25 01:34N 54°32' E 018°32'0 0.5
2017-Mar-25 00:34N 54°32' E 018°32'5 5.4
2017-Mar-24 23:34N 54°32' E 018°42'8 8.3
2017-Mar-24 22:34N 54°37' E 018°54'9 9.0
2017-Mar-24 21:33N 54°46' E 018°58'9 9.3
2017-Mar-24 20:34N 54°51' E 018°45'9 9.1
2017-Mar-24 19:34N 54°55' E 018°31'9 9.4
2017-Mar-24 18:34N 54°55' E 018°15'10 9.4
2017-Mar-24 17:29N 54°54' E 017°57'93 9.4
2017-Mar-24 07:34N 54°41' E 015°17'9 9.2
2017-Mar-24 06:34N 54°39' E 015°01'9 9.2
2017-Mar-24 05:34N 54°38' E 014°45'9 8.8
2017-Mar-24 04:34N 54°37' E 014°31'8 8.5
2017-Mar-24 03:34N 54°37' E 014°16'9 8.8
2017-Mar-24 02:32N 54°42' E 014°03'9 9.1
2017-Mar-24 01:33N 54°48' E 013°51'9 9.4
2017-Mar-24 00:32N 54°54' E 013°38'9 9.1
2017-Mar-23 23:33N 54°59' E 013°26'10 9.3
2017-Mar-23 22:31N 55°05' E 013°13'9 9.1
2017-Mar-23 21:34N 55°10' E 013°01'9 9.1
2017-Mar-23 20:33N 55°16' E 012°48'8 7.6
2017-Mar-23 19:34N 55°21' E 012°39'9 8.9
2017-Mar-23 18:34N 55°30' E 012°41'8 8.0
2017-Mar-23 17:34N 55°38' E 012°42'8 7.7
2017-Mar-23 16:34N 55°45' E 012°41'9 8.8
2017-Mar-23 15:33N 55°54' E 012°38'8 8.2
2017-Mar-23 14:33N 56°02' E 012°38'7 7.0
2017-Mar-23 13:34N 56°07' E 012°29'9 8.9
2017-Mar-23 12:33N 56°12' E 012°16'9 9.0
2017-Mar-23 11:33N 56°18' E 012°03'20 9.2
2017-Mar-23 09:21N 56°37' E 011°55'11 9.0
2017-Mar-23 08:06N 56°48' E 011°49'5 9.1
2017-Mar-23 07:34N 56°53' E 011°46'9 9.1
2017-Mar-23 06:31N 57°02' E 011°41'9 9.0
2017-Mar-23 05:32N 57°10' E 011°35'9 9.5
2017-Mar-23 04:34N 57°19' E 011°30'9 9.4
2017-Mar-23 03:34N 57°28' E 011°23'9 9.3
2017-Mar-23 02:33N 57°34' E 011°11'10 9.5
2017-Mar-23 01:33N 57°41' E 010°57'10 9.7
2017-Mar-23 00:33N 57°47' E 010°44'1111.0
2017-Mar-22 23:33N 57°48' E 010°23'1110.0
2017-Mar-22 22:25N 57°47' E 010°02'54 9.3
2017-Mar-22 16:33N 57°51' E 008°20'8 8.2
2017-Mar-22 15:33N 57°53' E 008°05'9 9.1
2017-Mar-22 14:34N 57°53' E 007°48'10 9.6
2017-Mar-22 13:33N 57°54' E 007°30'9 9.0
2017-Mar-22 12:33N 57°54' E 007°13'9 9.1
2017-Mar-22 11:33N 57°55' E 006°56'8 8.2
2017-Mar-22 10:33N 57°57' E 006°41'9 8.5
2017-Mar-22 09:33N 58°01' E 006°27'9 8.7
2017-Mar-22 08:33N 58°06' E 006°13'8 8.3
2017-Mar-22 07:33N 58°11' E 006°01'8 8.4
2017-Mar-22 06:33N 58°16' E 005°48'8 8.2
2017-Mar-22 05:33N 58°20' E 005°35'8 7.8
2017-Mar-22 04:33N 58°27' E 005°26'8 7.8
2017-Mar-22 03:33N 58°34' E 005°21'5 5.5
2017-Mar-22 02:34N 58°39' E 005°17'8 7.7
2017-Mar-22 01:34N 58°46' E 005°10'6 5.9
2017-Mar-22 00:34N 58°51' E 005°06'5 5.1
2017-Mar-21 23:33N 58°56' E 005°02'8 8.2
2017-Mar-21 22:33N 59°03' E 004°54'23 7.5
2017-Mar-21 19:33N 59°25' E 004°45'8 7.7
2017-Mar-21 18:33N 59°33' E 004°46'8 7.9
2017-Mar-21 17:33N 59°41' E 004°49'8 7.8
2017-Mar-21 16:33N 59°48' E 004°52'8 8.0
2017-Mar-21 15:33N 59°56' E 004°52'7 7.2
2017-Mar-21 14:33N 60°03' E 004°55'4 3.7
2017-Mar-21 13:33N 60°07' E 004°56'7 6.9
2017-Mar-21 12:34N 60°10' E 005°08'8 8.5
2017-Mar-21 11:33N 60°19' E 005°08'8 7.5
2017-Mar-21 10:33N 60°25' E 005°16'9 8.6
2017-Mar-21 09:33N 60°33' E 005°22'8 8.5
2017-Mar-21 08:33N 60°39' E 005°35'3 3.0
2017-Mar-21 07:31N 60°42' E 005°33'0 0.0
2017-Mar-21 06:31N 60°42' E 005°33'0 0.0
2017-Mar-21 05:31N 60°42' E 005°33'0 0.0
2017-Mar-21 04:31N 60°42' E 005°33'0 0.0
2017-Mar-21 03:31N 60°42' E 005°33'0 0.0
2017-Mar-21 02:31N 60°42' E 005°33'0 0.0
2017-Mar-21 01:31N 60°42' E 005°33'0 0.0
2017-Mar-21 00:31N 60°42' E 005°33'0 0.0
2017-Mar-20 23:31N 60°42' E 005°33'0 0.0
2017-Mar-20 22:33N 60°42' E 005°33'0 0.0
2017-Mar-20 21:33N 60°42' E 005°33'0 0.0
2017-Mar-20 20:33N 60°42' E 005°33'0 0.0
2017-Mar-20 19:33N 60°42' E 005°33'0 0.0
2017-Mar-20 18:33N 60°42' E 005°33'0 0.0
2017-Mar-20 17:33N 60°42' E 005°33'0 0.0
2017-Mar-20 16:33N 60°42' E 005°33'0 0.0
2017-Mar-20 15:33N 60°42' E 005°33'6 6.0
2017-Mar-20 14:33N 60°36' E 005°29'8 8.4
2017-Mar-20 13:33N 60°34' E 005°12'9 9.1
2017-Mar-20 12:33N 60°38' E 004°56'8 8.4
2017-Mar-20 11:33N 60°44' E 004°44'5 5.5
2017-Mar-20 10:33N 60°41' E 004°34'4 3.7
2017-Mar-20 09:33N 60°38' E 004°30'1 1.1
2017-Mar-20 08:33N 60°38' E 004°28'0 0.2
2017-Mar-20 07:33N 60°38' E 004°28'1 0.8
2017-Mar-20 06:33N 60°38' E 004°27'0 0.4
2017-Mar-20 05:33N 60°39' E 004°26'0 0.4
2017-Mar-20 04:33N 60°39' E 004°26'0 0.5
2017-Mar-20 03:33N 60°39' E 004°25'0 0.4
2017-Mar-20 02:33N 60°39' E 004°24'0 0.5
2017-Mar-20 01:33N 60°38' E 004°23'0 0.4
2017-Mar-20 00:33N 60°38' E 004°23'1 0.9
2017-Mar-19 23:33N 60°37' E 004°22'1 0.6
2017-Mar-19 22:33N 60°37' E 004°22'1 1.3
2017-Mar-19 21:33N 60°35' E 004°22'1 0.5
2017-Mar-19 20:33N 60°36' E 004°23'1 0.6
2017-Mar-19 19:33N 60°35' E 004°24'1 1.1
2017-Mar-19 18:33N 60°35' E 004°26'2 2.3
2017-Mar-19 17:33N 60°38' E 004°28'3 3.2
2017-Mar-19 16:33N 60°40' E 004°23'2 1.9
2017-Mar-19 15:32N 60°42' E 004°24'5 2.5
2017-Mar-19 13:33N 60°46' E 004°18'2 1.7
2017-Mar-19 12:33N 60°48' E 004°19'2 1.7
2017-Mar-19 11:33N 60°49' E 004°18'1 1.4
2017-Mar-19 10:33N 60°51' E 004°17'6 2.0
2017-Mar-19 07:33N 60°57' E 004°17'5 4.6
2017-Mar-19 06:33N 61°01' E 004°20'6 6.3
2017-Mar-19 05:33N 61°07' E 004°23'6 6.2
2017-Mar-19 04:33N 61°13' E 004°20'25 6.2
2017-Mar-19 00:33N 61°38' E 004°23'7 7.1
2017-Mar-18 23:33N 61°44' E 004°29'8 7.9
2017-Mar-18 22:33N 61°52' E 004°36'8 8.2
2017-Mar-18 21:33N 61°59' E 004°43'9 8.4
2017-Mar-18 20:33N 62°07' E 004°50'8 7.8
2017-Mar-18 19:33N 62°14' E 004°57'7 6.9
2017-Mar-18 18:33N 62°20' E 005°03'8 7.6
2017-Mar-18 17:33N 62°27' E 005°11'8 8.1
2017-Mar-18 16:33N 62°33' E 005°22'8 8.1
2017-Mar-18 15:33N 62°39' E 005°35'8 8.3
2017-Mar-18 14:33N 62°45' E 005°47'9 9.3
2017-Mar-18 13:33N 62°51' E 006°02'9 9.1
2017-Mar-18 12:33N 62°57' E 006°18'9 9.0
2017-Mar-18 11:33N 63°02' E 006°35'9 9.1
2017-Mar-18 10:33N 63°06' E 006°52'9 8.8
2017-Mar-18 09:33N 63°11' E 007°08'9 8.9
2017-Mar-18 08:34N 63°15' E 007°26'9 8.9
2017-Mar-18 07:34N 63°14' E 007°45'9 8.6
2017-Mar-18 06:33N 63°15' E 008°04'10 9.7
2017-Mar-18 05:33N 63°21' E 008°21'1010.1
2017-Mar-18 04:33N 63°26' E 008°41'10 9.9
2017-Mar-18 03:33N 63°29' E 009°02'8 8.5
2017-Mar-18 02:33N 63°35' E 009°16'9 9.1
2017-Mar-18 01:33N 63°44' E 009°22'9 8.9
2017-Mar-18 00:33N 63°49' E 009°38'0 0.0
2017-Mar-17 23:33N 63°49' E 009°38'0 0.0
2017-Mar-17 22:33N 63°49' E 009°38'0 0.0
2017-Mar-17 21:33N 63°49' E 009°38'0 0.0
2017-Mar-17 20:33N 63°49' E 009°38'0 0.0
2017-Mar-17 19:33N 63°49' E 009°38'0 0.0
2017-Mar-17 18:33N 63°49' E 009°38'0 0.0
2017-Mar-17 17:33N 63°49' E 009°38'0 0.0
2017-Mar-17 16:33N 63°49' E 009°38'  

Dump ship's entire track history